Time;durP1;ratioP1;P1;durP2;ratioP2;P2;SDS_P1;SDS_P2;PMS_P1;PMS_P2;Temp;Humidity;BMP_temperature;BMP_pressure;BME280_temperature;BME280_humidity;BME280_pressure;Samples;Min_cycle;Max_cycle;Signal;HPM_P1;HPM_P2
2021/05/06 00:01:54;;;;;;;7.85;3.58;;;;;;;14.25;34.89;100836.06;5080895;28;20033;-77
2021/05/06 00:33:55;;;;;;;5.38;3.05;;;;;;;14.03;34.66;100830.91;5076045;28;20093;-76
2021/05/06 00:36:22;;;;;;;5.45;2.95;;;;;;;14.02;34.66;100830.09;5074455;28;20474;-76
2021/05/06 00:38:51;;;;;;;4.88;2.97;;;;;;;13.96;34.46;100825.94;5075772;28;20032;-76
2021/05/06 00:44:21;;;;;;;6.65;3.38;;;;;;;13.84;34.68;100829.41;5075742;28;20489;-77
2021/05/06 01:01:10;;;;;;;5.43;3.55;;;;;;;13.76;34.92;100819.28;5073937;28;20071;-76
2021/05/06 01:06:06;;;;;;;7.40;3.38;;;;;;;13.71;34.67;100826.91;5075354;28;20028;-77
2021/05/06 01:08:36;;;;;;;11.32;3.45;;;;;;;13.65;34.91;100817.25;5075195;28;20028;-77
2021/05/06 01:11:17;;;;;;;7.20;3.20;;;;;;;13.67;34.69;100815.75;5075318;28;20055;-79
2021/05/06 01:13:44;;;;;;;7.63;3.35;;;;;;;13.65;34.92;100817.25;5075335;28;20027;-86
2021/05/06 01:16:10;;;;;;;6.75;3.45;;;;;;;13.72;34.72;100812.84;5075417;28;20463;-77
2021/05/06 01:18:36;;;;;;;6.18;3.08;;;;;;;13.71;34.70;100808.50;5075155;28;20031;-83
2021/05/06 01:21:03;;;;;;;6.78;3.58;;;;;;;13.66;34.80;100808.66;5075206;28;20047;-76
2021/05/06 01:23:30;;;;;;;6.15;2.97;;;;;;;13.65;34.81;100804.31;5075108;28;20021;-76
2021/05/06 01:26:00;;;;;;;6.10;3.33;;;;;;;13.60;35.06;100801.75;5074307;28;20410;-76
2021/05/06 01:28:30;;;;;;;9.32;3.78;;;;;;;13.58;34.80;100799.34;5075682;28;20378;-86
2021/05/06 01:31:03;;;;;;;10.68;3.67;;;;;;;13.55;34.96;100791.78;5074844;28;20024;-76
2021/05/06 01:33:43;;;;;;;6.65;2.92;;;;;;;13.55;34.96;100796.47;5074876;28;20047;-76
2021/05/06 01:36:22;;;;;;;13.63;3.50;;;;;;;13.52;34.88;100791.63;5073482;28;20115;-77
2021/05/06 01:39:10;;;;;;;5.10;3.40;;;;;;;13.50;35.06;100789.22;5074719;28;20089;-76
2021/05/06 01:41:44;;;;;;;7.18;3.60;;;;;;;13.46;34.93;100787.50;5074704;28;20394;-76
2021/05/06 01:44:25;;;;;;;4.20;2.60;;;;;;;13.36;34.99;100791.38;5074812;28;20028;-76
2021/05/06 01:49:45;;;;;;;7.07;2.65;;;;;;;13.33;34.78;100781.88;5074972;28;20471;-86
2021/05/06 02:00:14;;;;;;;5.45;3.03;;;;;;;13.22;35.04;100766.91;5074679;28;20471;-76
2021/05/06 02:02:40;;;;;;;5.30;3.10;;;;;;;13.24;34.90;100767.41;5074330;28;20024;-76
2021/05/06 02:05:06;;;;;;;6.35;3.65;;;;;;;13.19;34.92;100773.03;5074228;28;20029;-86
2021/05/06 02:07:32;;;;;;;5.30;2.83;;;;;;;13.21;34.89;100775.47;5074279;28;20419;-84
2021/05/06 02:09:58;;;;;;;6.38;2.72;;;;;;;13.18;34.89;100760.47;5074287;28;20021;-76
2021/05/06 02:12:23;;;;;;;4.72;3.28;;;;;;;13.16;35.07;100757.25;5072789;28;20040;-76
2021/05/06 02:14:56;;;;;;;4.32;2.42;;;;;;;13.12;34.89;100759.03;5074219;28;20028;-76
2021/05/06 02:17:22;;;;;;;5.10;2.60;;;;;;;13.09;34.89;100759.69;5074028;28;20025;-86
2021/05/06 02:19:49;;;;;;;5.45;3.22;;;;;;;13.10;35.00;100764.03;5073934;28;20074;-76
2021/05/06 02:22:19;;;;;;;4.78;3.22;;;;;;;13.16;34.99;100759.19;5073873;28;20020;-82
2021/05/06 02:24:45;;;;;;;5.63;2.70;;;;;;;13.19;34.77;100755.78;5072648;28;20031;-85
2021/05/06 02:27:11;;;;;;;5.28;2.70;;;;;;;13.18;34.75;100765.16;5073834;28;20063;-76
2021/05/06 02:29:37;;;;;;;9.18;3.42;;;;;;;13.18;34.79;100760.47;5072884;28;20463;-76
2021/05/06 02:32:04;;;;;;;4.75;2.30;;;;;;;13.19;34.77;100750.28;5072424;28;20036;-76
2021/05/06 02:34:30;;;;;;;7.40;2.55;;;;;;;13.06;35.11;100747.44;5073520;28;20062;-76
2021/05/06 02:36:55;;;;;;;3.50;2.33;;;;;;;13.06;34.91;100730.97;5073306;28;20430;-77
2021/05/06 02:39:21;;;;;;;6.88;3.03;;;;;;;13.05;35.21;100745.00;5072738;28;20028;-76
2021/05/06 02:41:47;;;;;;;7.45;2.85;;;;;;;13.21;34.69;100748.03;5073449;28;20028;-76
2021/05/06 02:44:12;;;;;;;6.55;2.63;;;;;;;13.02;34.99;100742.94;5073595;28;20100;-76
2021/05/06 02:46:38;;;;;;;6.03;2.65;;;;;;;12.93;34.98;100756.69;5073414;28;20116;-76
2021/05/06 02:49:04;;;;;;;7.75;3.30;;;;;;;12.97;35.02;100748.59;5073359;28;20025;-86
2021/05/06 02:51:34;;;;;;;7.47;2.55;;;;;;;12.99;35.06;100758.09;5073252;28;20471;-76
2021/05/06 02:54:01;;;;;;;4.45;2.47;;;;;;;12.98;34.77;100750.22;5073271;28;20029;-76
2021/05/06 02:59:11;;;;;;;6.70;3.17;;;;;;;13.06;34.82;100736.44;5073264;28;20139;-77
2021/05/06 03:04:21;;;;;;;5.10;2.75;;;;;;;12.90;35.24;100745.56;5073196;28;20121;-76
2021/05/06 03:06:57;;;;;;;6.63;2.47;;;;;;;12.93;34.88;100742.19;5073142;28;20063;-76
2021/05/06 03:12:29;;;;;;;8.50;2.70;;;;;;;12.85;35.01;100743.03;5073396;28;20032;-76
2021/05/06 03:22:58;;;;;;;4.07;2.40;;;;;;;12.88;34.97;100732.19;5073039;28;20063;-76
2021/05/06 03:25:24;;;;;;;6.97;2.70;;;;;;;12.87;34.99;100740.75;5072831;28;20025;-76
2021/05/06 03:28:00;;;;;;;5.28;2.45;;;;;;;12.87;34.96;100736.06;5072545;28;20029;-77
2021/05/06 03:30:53;;;;;;;5.82;2.60;;;;;;;12.86;34.95;100737.19;5073023;28;20086;-85
2021/05/06 04:14:33;;;;;;;10.95;3.22;;;;;;;12.72;35.02;100725.63;5052329;28;20112;-76
2021/05/06 04:16:38;;;;;;;10.52;3.28;;;;;;;12.72;35.08;100731.91;5052975;28;20032;-76
2021/05/06 04:22:11;;;;;;;8.73;3.25;;;;;;;12.70;35.18;100728.72;5052289;28;20028;-76
2021/05/06 04:27:22;;;;;;;8.15;4.05;;;;;;;12.75;35.11;100723.03;5052181;28;20027;-76
2021/05/06 04:38:00;;;;;;;34.78;8.23;;;;;;;12.60;35.36;100709.84;5051877;28;20051;-76
2021/05/06 05:06:39;;;;;;;28.17;6.00;;;;;;;12.44;35.83;100704.09;5055685;28;20029;-76
2021/05/06 05:11:46;;;;;;;10.50;3.67;;;;;;;12.56;35.25;100708.13;5055342;28;20052;-76
2021/05/06 05:14:31;;;;;;;12.18;4.05;;;;;;;12.59;35.45;100704.69;5055435;28;20024;-75
2021/05/06 05:20:02;;;;;;;9.80;3.83;;;;;;;12.61;35.59;100708.72;5055474;28;20199;-76
2021/05/06 05:25:15;;;;;;;12.90;4.00;;;;;;;12.75;35.57;100716.75;5055214;28;20090;-76
2021/05/06 05:27:40;;;;;;;9.40;4.43;;;;;;;12.86;35.42;100719.94;5053466;28;20032;-76
2021/05/06 05:30:07;;;;;;;18.45;6.80;;;;;;;12.93;35.63;100725.72;5054799;28;20407;-79
2021/05/06 05:32:32;;;;;;;13.57;5.07;;;;;;;12.90;35.77;100723.63;5055029;28;20391;-76
2021/05/06 05:37:26;;;;;;;19.10;6.43;;;;;;;13.04;35.82;100727.75;5054610;28;20053;-75
2021/05/06 05:40:07;;;;;;;15.00;7.00;;;;;;;13.37;35.49;100723.59;5054700;28;20028;-84
2021/05/06 05:42:40;;;;;;;14.90;5.95;;;;;;;13.66;35.31;100726.28;5054742;28;20025;-75
2021/05/06 05:55:25;;;;;;;13.27;4.55;;;;;;;14.19;35.39;100726.69;5054672;28;20036;-76
2021/05/06 05:57:53;;;;;;;9.77;3.28;;;;;;;14.43;35.10;100737.75;5054314;28;20032;-76
2021/05/06 06:00:20;;;;;;;13.55;4.40;;;;;;;14.37;35.31;100728.16;5054431;28;20117;-76
2021/05/06 06:02:46;;;;;;;14.57;5.85;;;;;;;14.54;35.19;100722.50;5054382;28;20032;-77
2021/05/06 06:05:12;;;;;;;11.43;3.80;;;;;;;14.56;35.21;100733.13;5054296;28;20116;-76
2021/05/06 06:07:37;;;;;;;13.63;3.92;;;;;;;14.75;34.94;100736.19;5052963;28;20067;-76
2021/05/06 06:10:04;;;;;;;11.25;4.63;;;;;;;14.78;34.93;100732.72;5054203;28;20056;-86
2021/05/06 06:12:30;;;;;;;3.55;2.33;;;;;;;14.84;34.86;100734.13;5053954;28;20464;-80
2021/05/06 06:15:05;;;;;;;8.77;2.65;;;;;;;14.71;35.22;100735.25;5054086;28;20025;-76
2021/05/06 06:17:37;;;;;;;19.85;4.38;;;;;;;14.96;34.81;100738.81;5053878;28;20028;-76
2021/05/06 06:20:03;;;;;;;22.77;4.47;;;;;;;14.93;35.18;100739.50;5053948;28;20098;-76
2021/05/06 06:22:31;;;;;;;31.70;7.03;;;;;;;14.96;35.13;100738.81;5053843;28;20025;-76
2021/05/06 06:24:57;;;;;;;9.35;4.07;;;;;;;15.24;34.50;100745.25;5053907;28;20163;-75
2021/05/06 06:27:22;;;;;;;15.50;5.63;;;;;;;15.32;34.61;100746.28;5053850;28;20451;-84
2021/05/06 06:29:48;;;;;;;12.35;3.88;;;;;;;15.34;34.52;100757.78;5053800;28;20100;-75
2021/05/06 06:32:16;;;;;;;10.40;3.15;;;;;;;15.11;34.60;100751.09;5053739;28;20021;-81
2021/05/06 06:34:41;;;;;;;12.93;3.00;;;;;;;15.22;34.59;100749.53;5066908;28;20600;-82
2021/05/06 06:37:07;;;;;;;12.98;2.63;;;;;;;15.48;33.97;100755.47;5070133;28;20090;-83
2021/05/06 06:39:33;;;;;;;22.63;3.55;;;;;;;15.47;34.38;100764.88;5071934;28;20032;-75
2021/05/06 06:41:59;;;;;;;12.98;3.22;;;;;;;15.55;34.13;100760.38;5073373;28;20104;-76
2021/05/06 06:44:29;;;;;;;7.53;2.38;;;;;;;15.50;34.27;100755.13;5072058;28;20541;-76
2021/05/06 06:47:03;;;;;;;16.63;2.65;;;;;;;15.51;34.13;100743.78;5073780;28;20040;-76
2021/05/06 06:49:31;;;;;;;17.77;4.43;;;;;;;15.48;34.07;100755.47;5072925;28;20024;-76
2021/05/06 06:51:58;;;;;;;14.98;6.20;;;;;;;15.68;33.86;100758.47;5073003;28;20031;-83
2021/05/06 06:54:25;;;;;;;20.17;12.40;;;;;;;15.71;33.88;100752.25;5072487;28;20475;-77
2021/05/06 06:56:50;;;;;;;16.45;11.02;;;;;;;15.69;33.94;100760.06;5072504;28;20466;-80
2021/05/06 06:59:16;;;;;;;21.75;11.98;;;;;;;15.86;33.71;100754.28;5072365;28;20032;-76
2021/05/06 07:01:42;;;;;;;22.10;11.80;;;;;;;15.95;33.89;100751.41;5071312;28;20032;-76
2021/05/06 07:04:08;;;;;;;12.52;8.30;;;;;;;15.95;33.65;100760.47;5072666;28;20054;-76
2021/05/06 07:06:33;;;;;;;11.10;6.25;;;;;;;16.06;33.49;100767.09;5064128;28;20662;-76
2021/05/06 07:08:59;;;;;;;12.00;7.20;;;;;;;15.99;33.67;100764.13;5071200;28;20070;-82
2021/05/06 07:11:25;;;;;;;15.55;5.90;;;;;;;16.12;33.59;100756.63;5071829;28;20043;-82
2021/05/06 07:13:50;;;;;;;9.73;4.75;;;;;;;16.16;33.60;100763.03;5075694;28;20021;-83
2021/05/06 07:16:16;;;;;;;28.63;8.48;;;;;;;16.34;33.51;100758.84;5073372;28;20391;-83
2021/05/06 07:18:41;;;;;;;26.33;6.55;;;;;;;16.12;33.82;100747.56;5072169;28;20064;-83
2021/05/06 07:21:07;;;;;;;16.50;3.47;;;;;;;16.52;33.33;100756.56;5062664;28;20055;-75
2021/05/06 07:23:34;;;;;;;13.88;4.07;;;;;;;16.32;33.59;100760.34;5056999;28;20024;-74
2021/05/06 07:26:01;;;;;;;14.13;3.67;;;;;;;16.63;33.03;100748.59;5056119;28;20017;-77
2021/05/06 07:28:35;;;;;;;15.68;5.70;;;;;;;16.82;33.15;100753.44;5056250;28;20107;-84
2021/05/06 07:31:02;;;;;;;9.13;4.22;;;;;;;16.49;33.48;100753.72;5056490;28;20024;-78
2021/05/06 07:33:29;;;;;;;15.65;3.25;;;;;;;17.29;32.28;100747.91;5066438;28;20475;-76
2021/05/06 07:35:56;;;;;;;19.45;3.92;;;;;;;17.47;31.91;100754.69;5072777;28;20028;-77
2021/05/06 07:38:23;;;;;;;4.63;1.83;;;;;;;17.59;31.88;100756.50;5072052;28;20055;-77
2021/05/06 07:40:48;;;;;;;16.38;3.83;;;;;;;17.86;31.35;100745.69;5072697;28;20056;-78
2021/05/06 07:43:14;;;;;;;6.93;1.52;;;;;;;16.89;32.39;100750.88;5072703;28;20101;-78
2021/05/06 07:45:40;;;;;;;19.63;3.15;;;;;;;17.26;32.03;100747.84;5072622;28;20025;-77
2021/05/06 07:48:06;;;;;;;4.20;1.90;;;;;;;17.28;32.14;100751.03;5072119;28;20021;-76
2021/05/06 07:50:31;;;;;;;5.57;1.67;;;;;;;17.24;32.15;100739.94;5070735;28;20032;-77
2021/05/06 07:53:09;;;;;;;15.65;2.78;;;;;;;17.40;32.03;100745.44;5072129;28;20031;-77
2021/05/06 07:55:35;;;;;;;4.47;1.60;;;;;;;17.09;32.46;100746.25;5069309;28;20481;-77
2021/05/06 07:58:02;;;;;;;6.13;2.15;;;;;;;17.40;31.99;100748.19;5071915;28;20024;-77
2021/05/06 08:00:28;;;;;;;11.93;2.40;;;;;;;17.57;31.69;100749.75;5071845;28;20050;-85
2021/05/06 08:02:55;;;;;;;16.33;3.08;;;;;;;17.65;31.44;100749.56;5072203;28;20033;-77
2021/05/06 08:05:21;;;;;;;13.82;3.35;;;;;;;17.67;31.22;100751.94;5071879;28;20025;-77
2021/05/06 08:07:46;;;;;;;19.65;5.35;;;;;;;17.77;31.00;100750.63;5070255;28;20031;-77
2021/05/06 08:10:13;;;;;;;46.28;40.60;;;;;;;17.90;31.20;100746.56;5071809;28;20063;-77
2021/05/06 08:12:39;;;;;;;10.50;5.45;;;;;;;17.93;31.23;100754.16;5071947;28;20029;-77
2021/05/06 08:15:09;;;;;;;16.17;8.18;;;;;;;18.09;30.79;100756.84;5068762;28;20024;-77
2021/05/06 08:17:40;;;;;;;15.68;5.97;;;;;;;18.16;30.82;100752.25;5071890;28;20033;-85
2021/05/06 08:20:08;;;;;;;16.42;6.50;;;;;;;18.41;31.02;100747.22;5066692;28;20113;-77
2021/05/06 08:22:34;;;;;;;18.17;9.80;;;;;;;18.50;30.82;100760.81;5070964;28;20033;-77
2021/05/06 08:25:00;;;;;;;20.80;8.35;;;;;;;18.58;30.54;100754.25;5069497;28;20028;-85
2021/05/06 08:27:26;;;;;;;20.23;13.23;;;;;;;18.61;30.54;100756.31;5070407;28;20036;-77
2021/05/06 08:29:52;;;;;;;17.55;10.98;;;;;;;18.50;30.30;100752.50;5070386;28;20044;-77
2021/05/06 08:32:18;;;;;;;35.70;17.00;;;;;;;18.02;30.31;100763.03;5070680;28;20079;-77
2021/05/06 08:34:44;;;;;;;9.80;4.55;;;;;;;18.47;29.73;100767.88;5070627;28;20421;-76
2021/05/06 08:37:09;;;;;;;23.63;7.80;;;;;;;18.58;29.79;100768.88;5072338;28;20045;-77
2021/05/06 08:39:35;;;;;;;19.60;11.45;;;;;;;19.12;29.33;100756.84;5074371;28;20519;-77
2021/05/06 08:42:02;;;;;;;24.88;11.48;;;;;;;19.11;29.63;100762.72;5075569;28;20032;-77
2021/05/06 08:44:32;;;;;;;12.93;4.80;;;;;;;19.26;29.61;100774.84;5075725;28;20109;-77
2021/05/06 08:47:04;;;;;;;13.90;6.25;;;;;;;19.40;29.35;100773.09;5075693;28;20029;-77
2021/05/06 08:49:31;;;;;;;5.90;1.58;;;;;;;19.28;29.01;100767.78;5075640;28;20034;-76
2021/05/06 08:51:59;;;;;;;14.75;1.92;;;;;;;19.42;28.50;100781.03;5075543;28;20111;-77
2021/05/06 08:54:26;;;;;;;19.05;8.93;;;;;;;19.62;28.12;100779.00;5075532;28;20078;-77
2021/05/06 08:56:52;;;;;;;6.78;2.45;;;;;;;19.55;28.47;100792.72;5074128;28;20128;-77
2021/05/06 08:59:18;;;;;;;11.88;2.70;;;;;;;19.38;27.95;100758.03;5075296;28;20060;-77
2021/05/06 09:01:44;;;;;;;12.68;2.15;;;;;;;19.48;27.76;100778.75;5075295;28;20100;-77
2021/05/06 09:04:09;;;;;;;14.88;2.95;;;;;;;19.45;27.11;100776.75;5074041;28;20116;-77
2021/05/06 09:06:35;;;;;;;6.10;2.00;;;;;;;19.52;26.98;100774.88;5074985;28;20020;-77
2021/05/06 09:09:03;;;;;;;10.10;3.20;;;;;;;19.94;26.77;100776.69;5075090;28;20067;-82
2021/05/06 09:11:30;;;;;;;15.55;3.85;;;;;;;19.85;26.85;100774.19;5075341;28;20024;-77
2021/05/06 09:14:09;;;;;;;7.45;1.98;;;;;;;19.61;26.67;100774.66;5075124;28;20475;-77
2021/05/06 09:16:36;;;;;;;10.18;3.00;;;;;;;20.15;26.71;100776.19;5075139;28;20035;-77
2021/05/06 09:19:04;;;;;;;6.35;1.60;;;;;;;20.11;26.89;100769.81;5075051;28;20120;-77
2021/05/06 09:21:32;;;;;;;10.43;2.83;;;;;;;20.04;26.51;100789.91;5074893;28;20437;-77
2021/05/06 09:24:22;;;;;;;6.20;2.33;;;;;;;19.65;25.74;100778.28;5073822;28;20024;-77
2021/05/06 09:26:51;;;;;;;11.05;3.15;;;;;;;19.92;25.48;100776.28;5073493;28;20067;-77
2021/05/06 09:29:34;;;;;;;11.47;3.13;;;;;;;19.76;25.66;100776.44;5073320;28;20094;-77
2021/05/06 09:32:20;;;;;;;10.93;2.75;;;;;;;19.78;25.95;100776.06;5073543;28;20024;-77
2021/05/06 09:34:49;;;;;;;14.15;4.95;;;;;;;19.78;25.83;100776.06;5073552;28;20028;-77
2021/05/06 09:37:29;;;;;;;14.63;3.63;;;;;;;19.96;26.23;100782.69;5074309;28;20036;-77
2021/05/06 09:40:03;;;;;;;11.98;4.95;;;;;;;19.92;26.29;100788.16;5073457;28;20058;-78
2021/05/06 09:42:44;;;;;;;11.35;3.75;;;;;;;19.82;25.82;100786.06;5074694;28;20494;-77
2021/05/06 09:45:26;;;;;;;10.27;3.10;;;;;;;20.17;26.06;100790.47;5074583;28;20046;-77
2021/05/06 09:48:17;;;;;;;6.93;2.88;;;;;;;19.80;26.17;100784.81;5072845;28;20032;-77
2021/05/06 09:50:58;;;;;;;12.35;2.10;;;;;;;20.03;26.28;100782.78;5074525;28;20387;-77
2021/05/06 09:53:25;;;;;;;5.95;2.30;;;;;;;20.55;25.77;100783.00;5073210;28;20035;-77
2021/05/06 09:55:55;;;;;;;11.65;3.78;;;;;;;20.85;26.16;100780.16;5074249;28;20095;-77
2021/05/06 09:58:23;;;;;;;17.77;3.63;;;;;;;20.23;25.71;100789.75;5072491;28;20028;-77
2021/05/06 10:00:50;;;;;;;12.48;2.80;;;;;;;20.66;25.19;100783.94;5073972;28;20491;-77
2021/05/06 10:03:36;;;;;;;5.45;1.80;;;;;;;20.26;23.66;100793.78;5073924;28;20095;-77
2021/05/06 10:06:21;;;;;;;7.28;2.50;;;;;;;20.73;22.81;100789.56;5073746;28;20032;-78
2021/05/06 10:08:48;;;;;;;8.35;3.03;;;;;;;20.76;23.02;100797.13;5074148;28;20050;-77
2021/05/06 10:11:14;;;;;;;4.53;1.23;;;;;;;20.81;22.85;100801.56;5074010;28;20025;-77
2021/05/06 10:13:46;;;;;;;8.32;2.75;;;;;;;20.34;23.66;100801.00;5073952;28;20058;-77
2021/05/06 10:16:14;;;;;;;7.50;3.00;;;;;;;20.79;23.48;100807.50;5074042;28;20075;-77
2021/05/06 10:18:42;;;;;;;10.23;4.78;;;;;;;20.74;23.21;100797.53;5072613;28;20056;-77
2021/05/06 10:21:09;;;;;;;7.38;2.47;;;;;;;21.08;23.66;100802.19;5073899;28;20032;-76
2021/05/06 10:23:36;;;;;;;13.57;5.63;;;;;;;21.10;23.96;100797.88;5073840;28;20025;-82
2021/05/06 10:26:02;;;;;;;10.65;2.97;;;;;;;20.84;23.70;100807.13;5073349;28;20058;-78
2021/05/06 10:28:32;;;;;;;13.40;3.05;;;;;;;20.33;23.33;100807.72;5073249;28;20043;-85
2021/05/06 10:31:01;;;;;;;12.73;4.45;;;;;;;20.83;23.41;100804.75;5073343;28;20801;-76
2021/05/06 10:33:28;;;;;;;10.93;2.20;;;;;;;21.09;23.12;100801.03;5073480;28;20489;-84
2021/05/06 10:35:55;;;;;;;6.53;2.40;;;;;;;21.32;23.33;100804.44;5073002;28;20059;-77
2021/05/06 10:38:22;;;;;;;8.77;3.00;;;;;;;21.55;23.09;100802.25;5070215;28;20115;-76
2021/05/06 10:40:49;;;;;;;6.10;2.78;;;;;;;21.48;22.27;100799.41;5059121;28;20021;-77
2021/05/06 10:43:25;;;;;;;11.25;3.80;;;;;;;21.81;23.13;100797.66;5061918;28;20024;-77
2021/05/06 10:46:01;;;;;;;17.42;3.17;;;;;;;21.56;22.69;100801.06;5073218;28;20061;-85
2021/05/06 10:48:57;;;;;;;6.25;2.20;;;;;;;21.67;21.97;100803.91;5073255;28;20020;-77
2021/05/06 10:51:34;;;;;;;3.75;1.50;;;;;;;21.63;21.98;100794.75;5069706;28;20111;-77
2021/05/06 10:54:36;;;;;;;8.77;3.20;;;;;;;21.42;23.34;100806.50;5073296;28;20029;-76
2021/05/06 10:57:31;;;;;;;9.68;3.35;;;;;;;21.44;22.84;100797.78;5073267;28;20017;-85
2021/05/06 10:59:57;;;;;;;4.93;1.65;;;;;;;22.00;22.52;100791.81;5069594;28;20499;-77
2021/05/06 11:02:42;;;;;;;8.32;1.92;;;;;;;21.50;22.13;100794.25;5072994;28;20062;-77
2021/05/06 11:05:16;;;;;;;4.43;1.65;;;;;;;22.04;22.04;100797.38;5072664;28;20037;-76
2021/05/06 11:07:41;;;;;;;4.22;1.58;;;;;;;22.23;22.51;100791.53;5070772;28;20032;-84
2021/05/06 11:10:08;;;;;;;6.30;2.08;;;;;;;22.58;21.98;100790.84;5073244;28;20508;-84
2021/05/06 11:12:38;;;;;;;5.85;1.98;;;;;;;22.38;21.73;100795.97;5073584;28;20028;-84
2021/05/06 11:15:04;;;;;;;10.88;2.88;;;;;;;22.04;21.45;100798.16;5072988;28;20564;-80
2021/05/06 11:17:32;;;;;;;6.00;1.55;;;;;;;21.56;21.73;100797.50;5072929;28;20025;-79
2021/05/06 11:20:23;;;;;;;4.47;1.80;;;;;;;22.00;21.46;100797.38;5071840;28;20066;-85
2021/05/06 11:22:58;;;;;;;11.43;1.45;;;;;;;22.17;21.65;100789.53;5061797;28;20040;-86
2021/05/06 11:25:26;;;;;;;6.75;1.65;;;;;;;22.45;21.88;100791.63;5072809;28;20685;-84
2021/05/06 11:27:52;;;;;;;5.93;1.55;;;;;;;22.65;21.72;100793.66;5072773;28;20036;-84
2021/05/06 11:30:43;;;;;;;6.65;1.70;;;;;;;22.73;21.70;100788.91;5072900;28;20032;-85
2021/05/06 11:33:18;;;;;;;14.55;4.53;;;;;;;22.31;21.92;100798.72;5072856;28;20032;-78
2021/05/06 11:36:17;;;;;;;4.13;1.15;;;;;;;22.62;21.65;100800.03;5071371;28;20036;-77
2021/05/06 11:38:54;;;;;;;5.82;1.70;;;;;;;22.98;21.19;100798.16;5072224;28;20063;-78
2021/05/06 11:41:34;;;;;;;7.15;1.50;;;;;;;23.08;21.31;100790.19;5071023;28;20024;-78
2021/05/06 11:44:03;;;;;;;3.10;1.40;;;;;;;22.86;21.52;100790.16;5072225;28;20020;-78
2021/05/06 11:46:35;;;;;;;4.78;1.65;;;;;;;22.81;21.38;100792.50;5072600;28;20526;-84
2021/05/06 11:49:04;;;;;;;5.88;2.20;;;;;;;23.04;21.38;100795.75;5072387;28;20017;-77
2021/05/06 11:51:38;;;;;;;7.65;2.83;;;;;;;23.31;21.55;100800.97;5072476;28;20028;-78
2021/05/06 11:54:12;;;;;;;7.18;2.03;;;;;;;23.10;21.63;100802.53;5072491;28;20025;-77
2021/05/06 11:56:53;;;;;;;7.45;2.80;;;;;;;22.32;21.25;100807.88;5072511;28;20474;-77
2021/05/06 11:59:24;;;;;;;9.18;4.20;;;;;;;22.46;21.18;100812.72;5072418;28;20467;-78
2021/05/06 12:01:51;;;;;;;5.28;2.13;;;;;;;21.93;21.19;100805.69;5072540;28;20029;-78
2021/05/06 12:04:31;;;;;;;9.05;2.90;;;;;;;21.87;21.33;100796.09;5070398;28;20020;-79
2021/05/06 12:06:58;;;;;;;6.80;3.28;;;;;;;22.62;20.71;100799.25;5056950;28;20023;-78
2021/05/06 12:09:25;;;;;;;7.00;2.13;;;;;;;22.45;21.00;100789.66;5057566;28;20060;-77
2021/05/06 12:11:52;;;;;;;14.05;2.88;;;;;;;22.77;21.18;100794.50;5074068;28;20475;-77
2021/05/06 12:14:46;;;;;;;13.85;4.68;;;;;;;22.89;21.32;100794.13;5075400;28;20029;-78
2021/05/06 12:17:18;;;;;;;5.45;1.40;;;;;;;22.55;21.09;100786.09;5075843;28;20086;-84
2021/05/06 12:19:46;;;;;;;3.42;1.20;;;;;;;22.67;20.71;100794.09;5075043;28;20048;-77
2021/05/06 12:22:12;;;;;;;13.63;3.15;;;;;;;22.90;20.49;100785.41;5076244;28;20040;-78
2021/05/06 12:24:44;;;;;;;6.72;2.00;;;;;;;23.12;20.53;100786.19;5075571;28;20024;-77
2021/05/06 12:27:27;;;;;;;3.55;1.52;;;;;;;23.52;20.61;100784.22;5075307;28;20036;-77
2021/05/06 12:29:59;;;;;;;5.15;1.67;;;;;;;23.60;20.41;100779.44;5075406;28;20382;-78
2021/05/06 12:32:30;;;;;;;4.35;1.48;;;;;;;23.24;20.14;100783.03;5075318;28;20020;-77
2021/05/06 12:34:56;;;;;;;3.50;1.33;;;;;;;23.56;20.41;100779.41;5074845;28;20028;-79
2021/05/06 12:37:23;;;;;;;4.47;1.40;;;;;;;23.74;19.53;100783.03;5075262;28;20044;-83
2021/05/06 12:39:50;;;;;;;9.60;2.20;;;;;;;24.03;19.58;100783.75;5075580;28;20085;-78
2021/05/06 12:42:25;;;;;;;8.15;2.20;;;;;;;23.91;19.70;100780.59;5075797;28;20032;-77
2021/05/06 12:44:50;;;;;;;3.35;2.00;;;;;;;24.01;19.98;100774.16;5074474;28;20021;-84
2021/05/06 12:47:21;;;;;;;6.20;2.00;;;;;;;24.27;19.66;100778.47;5075797;28;20032;-78
2021/05/06 12:50:24;;;;;;;3.85;1.73;;;;;;;24.31;20.24;100773.66;5075706;28;20433;-85
2021/05/06 12:53:07;;;;;;;5.57;1.83;;;;;;;24.26;19.84;100762.91;5075923;28;20474;-84
2021/05/06 12:55:39;;;;;;;5.38;1.50;;;;;;;24.09;19.21;100768.16;5075835;28;20031;-82
2021/05/06 12:58:12;;;;;;;7.78;1.65;;;;;;;24.10;19.52;100780.09;5074277;28;20021;-77
2021/05/06 13:00:37;;;;;;;2.00;1.10;;;;;;;23.61;19.21;100779.06;5075231;28;20035;-77
2021/05/06 13:03:09;;;;;;;9.80;1.70;;;;;;;23.57;18.92;100769.06;5075521;28;20024;-77
2021/05/06 13:05:42;;;;;;;7.75;1.95;;;;;;;23.43;19.42;100775.47;5075410;28;20025;-78
2021/05/06 13:08:07;;;;;;;8.77;2.03;;;;;;;23.38;19.53;100784.22;5074006;28;20367;-78
2021/05/06 13:10:34;;;;;;;9.65;2.00;;;;;;;23.58;19.76;100774.25;5075102;28;20039;-77
2021/05/06 13:13:01;;;;;;;4.03;1.48;;;;;;;23.31;19.77;100781.44;5075268;28;20030;-79
2021/05/06 13:15:28;;;;;;;4.20;1.50;;;;;;;23.35;20.32;100780.25;5075113;28;20107;-78
2021/05/06 13:17:55;;;;;;;4.45;1.33;;;;;;;23.30;20.00;100775.06;5075252;28;20032;-78
2021/05/06 13:20:22;;;;;;;2.50;1.00;;;;;;;23.56;19.88;100781.41;5075161;28;20043;-78
2021/05/06 13:23:13;;;;;;;8.63;2.45;;;;;;;23.77;20.27;100775.81;5073766;28;20103;-77
2021/05/06 13:25:49;;;;;;;5.13;1.40;;;;;;;23.86;20.05;100790.16;5074982;28;20433;-78
2021/05/06 13:28:30;;;;;;;8.07;2.38;;;;;;;23.50;21.07;100794.94;5075027;28;20020;-78
2021/05/06 13:31:30;;;;;;;4.80;2.63;;;;;;;22.85;22.38;100784.97;5074611;28;20025;-78
2021/05/06 13:34:17;;;;;;;;;;;;;;;22.93;22.50;100797.75;5075848;28;20037;-82
2021/05/06 13:36:49;;;;;;;16.05;3.20;;;;;;;22.71;22.79;100802.44;5074675;28;19920;-78
2021/05/06 13:39:15;;;;;;;6.80;2.03;;;;;;;23.04;22.50;100800.53;5074702;28;20119;-77
2021/05/06 13:41:46;;;;;;;5.05;1.60;;;;;;;23.56;22.05;100787.78;5074798;28;20371;-78
2021/05/06 13:44:22;;;;;;;7.97;2.95;;;;;;;24.02;22.46;100786.91;5073288;28;20024;-83
2021/05/06 13:46:54;;;;;;;6.88;2.20;;;;;;;24.07;21.91;100797.66;5074803;28;20115;-77
2021/05/06 13:49:23;;;;;;;11.45;2.80;;;;;;;23.87;22.19;100788.16;5066248;28;20487;-77
2021/05/06 13:51:50;;;;;;;6.40;1.40;;;;;;;23.35;21.97;100808.13;5058997;28;20044;-78
2021/05/06 13:54:17;;;;;;;11.27;1.92;;;;;;;23.34;22.03;100808.50;5057397;28;20032;-78
2021/05/06 13:56:43;;;;;;;5.15;1.63;;;;;;;23.44;21.80;100804.94;5057344;28;20036;-78
2021/05/06 13:59:08;;;;;;;13.15;2.42;;;;;;;23.44;21.46;100802.94;5073128;28;20028;-78
2021/05/06 14:01:34;;;;;;;5.05;1.23;;;;;;;23.65;21.15;100807.72;5072823;28;20364;-78
2021/05/06 14:04:00;;;;;;;5.78;1.70;;;;;;;24.37;20.53;100801.97;5074267;28;20031;-78
2021/05/06 14:06:26;;;;;;;4.97;1.58;;;;;;;24.71;20.80;100804.97;5073874;28;20024;-77
2021/05/06 14:08:52;;;;;;;6.28;2.20;;;;;;;24.76;19.96;100808.16;5073856;28;20020;-78
2021/05/06 14:11:18;;;;;;;11.98;2.25;;;;;;;24.81;19.48;100796.56;5073616;28;20017;-76
2021/05/06 14:13:44;;;;;;;5.82;1.75;;;;;;;24.66;19.20;100808.22;5073825;28;20450;-78
2021/05/06 14:16:10;;;;;;;9.52;2.42;;;;;;;25.03;19.44;100807.59;5073991;28;20056;-77
2021/05/06 14:18:35;;;;;;;5.70;1.70;;;;;;;25.16;19.84;100808.69;5073579;28;20031;-81
2021/05/06 14:21:02;;;;;;;18.30;4.43;;;;;;;25.13;19.82;100804.75;5073966;28;20027;-78
2021/05/06 14:23:37;;;;;;;4.30;1.50;;;;;;;24.32;19.54;100803.16;5072375;28;20418;-82
2021/05/06 14:26:03;;;;;;;8.23;2.15;;;;;;;24.44;20.06;100807.53;5072133;28;20422;-79
2021/05/06 14:28:28;;;;;;;8.00;2.40;;;;;;;24.29;20.50;100812.34;5072599;28;20028;-79
2021/05/06 14:30:54;;;;;;;6.90;1.75;;;;;;;23.86;20.68;100817.25;5073089;28;20020;-79
2021/05/06 14:33:19;;;;;;;8.07;2.03;;;;;;;23.66;20.96;100837.22;5072295;28;20122;-78
2021/05/06 14:35:45;;;;;;;20.35;3.15;;;;;;;23.57;21.34;100834.00;5073140;28;20027;-78